Allegheny, Pennsylvania
Current Conditions -  °F | °C
As of 12:53 PM on Sunday 23 Nov 2014 (Local Time) from KAGC Reporting Station
Clear Clear  
Wind Chill: 63°   Ceiling: Unl
Heat Index: 63°   Visibility: 10mi
Dew Point: 41°   Wind: 10mph
Humidity: 45%   Direction: 160°SSE
Pressure: 29.98"   Gusts: NA
Location:  40.4725°N, 80.0082°W
Report Text: KAGC 231753Z 16009KT 10SM CLR 17/05 A2998 RMK AO2 SLP154 T01720050 10172 20083 56037
Loading
Personal Weather Stations






























Interactive Weather Map New forecast layout! Learn more

10-Day Weather Forecast

Advertisements
Track Severe Weather on mobile